sensor_id;sensor_type;location;lat;lon;timestamp;P1;durP1;ratioP1;P2;durP2;ratioP2
13805;SDS011;6974;53.606;9.872;2023-03-01T00:00:04;30.00;;;21.57;;
13805;SDS011;6974;53.606;9.872;2023-03-01T00:02:33;30.87;;;22.00;;
13805;SDS011;6974;53.606;9.872;2023-03-01T00:05:01;27.97;;;21.33;;
13805;SDS011;6974;53.606;9.872;2023-03-01T00:07:30;27.50;;;20.43;;
13805;SDS011;6974;53.606;9.872;2023-03-01T00:09:57;27.90;;;21.17;;
13805;SDS011;6974;53.606;9.872;2023-03-01T00:12:24;27.13;;;19.80;;
13805;SDS011;6974;53.606;9.872;2023-03-01T00:14:52;25.90;;;19.63;;
13805;SDS011;6974;53.606;9.872;2023-03-01T00:17:19;27.93;;;20.33;;
13805;SDS011;6974;53.606;9.872;2023-03-01T00:19:47;26.83;;;18.83;;
13805;SDS011;6974;53.606;9.872;2023-03-01T00:22:15;27.17;;;18.93;;
13805;SDS011;6974;53.606;9.872;2023-03-01T00:24:44;25.63;;;19.00;;
13805;SDS011;6974;53.606;9.872;2023-03-01T00:27:11;24.50;;;19.00;;
13805;SDS011;6974;53.606;9.872;2023-03-01T00:29:38;27.60;;;19.87;;
13805;SDS011;6974;53.606;9.872;2023-03-01T00:32:05;24.33;;;18.10;;
13805;SDS011;6974;53.606;9.872;2023-03-01T00:34:32;25.43;;;18.80;;
13805;SDS011;6974;53.606;9.872;2023-03-01T00:36:59;26.90;;;18.73;;
13805;SDS011;6974;53.606;9.872;2023-03-01T00:39:30;28.93;;;20.27;;
13805;SDS011;6974;53.606;9.872;2023-03-01T00:41:59;29.07;;;20.10;;
13805;SDS011;6974;53.606;9.872;2023-03-01T00:44:26;24.80;;;19.97;;
13805;SDS011;6974;53.606;9.872;2023-03-01T00:46:53;26.03;;;19.83;;
13805;SDS011;6974;53.606;9.872;2023-03-01T00:49:20;28.90;;;20.77;;
13805;SDS011;6974;53.606;9.872;2023-03-01T00:51:49;31.83;;;21.93;;
13805;SDS011;6974;53.606;9.872;2023-03-01T00:54:16;27.40;;;20.33;;
13805;SDS011;6974;53.606;9.872;2023-03-01T00:56:45;27.60;;;19.53;;
13805;SDS011;6974;53.606;9.872;2023-03-01T00:59:13;27.27;;;19.50;;
13805;SDS011;6974;53.606;9.872;2023-03-01T01:01:40;28.53;;;19.70;;
13805;SDS011;6974;53.606;9.872;2023-03-01T01:04:08;28.83;;;19.63;;
13805;SDS011;6974;53.606;9.872;2023-03-01T01:06:38;27.43;;;19.57;;
13805;SDS011;6974;53.606;9.872;2023-03-01T01:09:08;26.63;;;19.33;;
13805;SDS011;6974;53.606;9.872;2023-03-01T01:11:34;25.10;;;19.13;;
13805;SDS011;6974;53.606;9.872;2023-03-01T01:14:02;26.17;;;20.10;;
13805;SDS011;6974;53.606;9.872;2023-03-01T01:16:30;27.27;;;19.20;;
13805;SDS011;6974;53.606;9.872;2023-03-01T01:18:58;27.50;;;19.23;;
13805;SDS011;6974;53.606;9.872;2023-03-01T01:21:25;29.67;;;20.23;;
13805;SDS011;6974;53.606;9.872;2023-03-01T01:23:52;28.03;;;18.90;;
13805;SDS011;6974;53.606;9.872;2023-03-01T01:26:20;29.63;;;19.90;;
13805;SDS011;6974;53.606;9.872;2023-03-01T01:28:49;25.17;;;18.07;;
13805;SDS011;6974;53.606;9.872;2023-03-01T01:31:16;25.37;;;18.53;;
13805;SDS011;6974;53.606;9.872;2023-03-01T01:33:44;28.70;;;19.73;;
13805;SDS011;6974;53.606;9.872;2023-03-01T01:36:11;27.93;;;19.30;;
13805;SDS011;6974;53.606;9.872;2023-03-01T01:38:38;27.23;;;19.20;;
13805;SDS011;6974;53.606;9.872;2023-03-01T01:41:07;25.33;;;18.07;;
13805;SDS011;6974;53.606;9.872;2023-03-01T01:43:37;26.10;;;18.10;;
13805;SDS011;6974;53.606;9.872;2023-03-01T01:46:06;24.30;;;18.00;;
13805;SDS011;6974;53.606;9.872;2023-03-01T01:48:43;25.93;;;18.90;;
13805;SDS011;6974;53.606;9.872;2023-03-01T01:51:15;23.17;;;17.40;;
13805;SDS011;6974;53.606;9.872;2023-03-01T01:53:46;25.40;;;18.67;;
13805;SDS011;6974;53.606;9.872;2023-03-01T01:56:17;23.67;;;17.40;;
13805;SDS011;6974;53.606;9.872;2023-03-01T01:58:46;24.17;;;16.23;;
13805;SDS011;6974;53.606;9.872;2023-03-01T02:01:14;24.67;;;16.57;;
13805;SDS011;6974;53.606;9.872;2023-03-01T02:03:41;24.73;;;16.80;;
13805;SDS011;6974;53.606;9.872;2023-03-01T02:06:13;22.93;;;15.77;;
13805;SDS011;6974;53.606;9.872;2023-03-01T02:08:45;21.87;;;15.87;;
13805;SDS011;6974;53.606;9.872;2023-03-01T02:11:14;23.13;;;16.03;;
13805;SDS011;6974;53.606;9.872;2023-03-01T02:13:41;22.67;;;15.83;;
13805;SDS011;6974;53.606;9.872;2023-03-01T02:16:11;21.07;;;15.57;;
13805;SDS011;6974;53.606;9.872;2023-03-01T02:18:40;22.83;;;15.80;;
13805;SDS011;6974;53.606;9.872;2023-03-01T02:21:13;20.30;;;15.43;;
13805;SDS011;6974;53.606;9.872;2023-03-01T02:23:47;23.23;;;16.07;;
13805;SDS011;6974;53.606;9.872;2023-03-01T02:26:17;21.43;;;14.90;;
13805;SDS011;6974;53.606;9.872;2023-03-01T02:28:48;21.13;;;15.60;;
13805;SDS011;6974;53.606;9.872;2023-03-01T02:31:17;22.53;;;15.80;;
13805;SDS011;6974;53.606;9.872;2023-03-01T02:34:03;19.53;;;13.87;;
13805;SDS011;6974;53.606;9.872;2023-03-01T02:36:31;22.20;;;14.23;;
13805;SDS011;6974;53.606;9.872;2023-03-01T02:39:02;21.53;;;15.73;;
13805;SDS011;6974;53.606;9.872;2023-03-01T02:41:32;19.87;;;15.03;;
13805;SDS011;6974;53.606;9.872;2023-03-01T02:44:04;19.10;;;14.50;;
13805;SDS011;6974;53.606;9.872;2023-03-01T02:46:33;19.13;;;15.10;;
13805;SDS011;6974;53.606;9.872;2023-03-01T02:49:15;19.47;;;14.17;;
13805;SDS011;6974;53.606;9.872;2023-03-01T02:51:50;19.63;;;14.13;;
13805;SDS011;6974;53.606;9.872;2023-03-01T02:54:31;20.97;;;14.73;;
13805;SDS011;6974;53.606;9.872;2023-03-01T02:57:05;23.43;;;15.37;;
13805;SDS011;6974;53.606;9.872;2023-03-01T02:59:36;20.13;;;14.93;;
13805;SDS011;6974;53.606;9.872;2023-03-01T03:02:05;21.57;;;15.17;;
13805;SDS011;6974;53.606;9.872;2023-03-01T03:04:32;21.07;;;14.33;;
13805;SDS011;6974;53.606;9.872;2023-03-01T03:06:59;19.50;;;14.10;;
13805;SDS011;6974;53.606;9.872;2023-03-01T03:09:26;19.43;;;14.17;;
13805;SDS011;6974;53.606;9.872;2023-03-01T03:11:53;18.43;;;13.27;;
13805;SDS011;6974;53.606;9.872;2023-03-01T03:14:20;18.27;;;12.63;;
13805;SDS011;6974;53.606;9.872;2023-03-01T03:16:49;16.57;;;12.70;;
13805;SDS011;6974;53.606;9.872;2023-03-01T03:19:16;16.33;;;11.43;;
13805;SDS011;6974;53.606;9.872;2023-03-01T03:21:44;21.07;;;12.47;;
13805;SDS011;6974;53.606;9.872;2023-03-01T03:24:12;16.13;;;11.87;;
13805;SDS011;6974;53.606;9.872;2023-03-01T03:26:38;16.07;;;11.47;;
13805;SDS011;6974;53.606;9.872;2023-03-01T03:29:05;14.73;;;11.50;;
13805;SDS011;6974;53.606;9.872;2023-03-01T03:31:32;16.87;;;11.93;;
13805;SDS011;6974;53.606;9.872;2023-03-01T03:34:01;14.43;;;11.20;;
13805;SDS011;6974;53.606;9.872;2023-03-01T03:36:28;13.40;;;10.40;;
13805;SDS011;6974;53.606;9.872;2023-03-01T03:38:55;13.50;;;10.67;;
13805;SDS011;6974;53.606;9.872;2023-03-01T03:41:21;14.37;;;10.50;;
13805;SDS011;6974;53.606;9.872;2023-03-01T03:43:48;12.90;;;9.73;;
13805;SDS011;6974;53.606;9.872;2023-03-01T03:46:15;12.50;;;9.53;;
13805;SDS011;6974;53.606;9.872;2023-03-01T03:48:43;11.17;;;8.93;;
13805;SDS011;6974;53.606;9.872;2023-03-01T03:51:12;14.13;;;8.93;;
13805;SDS011;6974;53.606;9.872;2023-03-01T03:53:41;13.70;;;8.90;;
13805;SDS011;6974;53.606;9.872;2023-03-01T03:56:08;13.00;;;9.27;;
13805;SDS011;6974;53.606;9.872;2023-03-01T03:58:35;12.13;;;8.60;;
13805;SDS011;6974;53.606;9.872;2023-03-01T04:01:02;11.33;;;8.77;;
13805;SDS011;6974;53.606;9.872;2023-03-01T04:03:30;11.60;;;8.23;;
13805;SDS011;6974;53.606;9.872;2023-03-01T04:05:58;11.17;;;8.53;;
13805;SDS011;6974;53.606;9.872;2023-03-01T04:08:27;12.37;;;9.00;;
13805;SDS011;6974;53.606;9.872;2023-03-01T04:10:57;11.87;;;9.13;;
13805;SDS011;6974;53.606;9.872;2023-03-01T04:13:25;11.93;;;9.27;;
13805;SDS011;6974;53.606;9.872;2023-03-01T04:15:52;12.23;;;9.27;;
13805;SDS011;6974;53.606;9.872;2023-03-01T04:18:20;10.60;;;8.43;;
13805;SDS011;6974;53.606;9.872;2023-03-01T04:20:48;13.73;;;8.43;;
13805;SDS011;6974;53.606;9.872;2023-03-01T04:23:17;10.70;;;8.80;;
13805;SDS011;6974;53.606;9.872;2023-03-01T04:25:48;14.00;;;10.10;;
13805;SDS011;6974;53.606;9.872;2023-03-01T04:28:18;12.93;;;9.47;;
13805;SDS011;6974;53.606;9.872;2023-03-01T04:30:46;10.93;;;7.87;;
13805;SDS011;6974;53.606;9.872;2023-03-01T04:33:13;12.47;;;7.93;;
13805;SDS011;6974;53.606;9.872;2023-03-01T04:35:39;11.03;;;8.27;;
13805;SDS011;6974;53.606;9.872;2023-03-01T04:38:06;11.20;;;7.77;;
13805;SDS011;6974;53.606;9.872;2023-03-01T04:40:34;9.83;;;8.17;;
13805;SDS011;6974;53.606;9.872;2023-03-01T04:43:02;9.83;;;7.43;;
13805;SDS011;6974;53.606;9.872;2023-03-01T04:45:31;10.20;;;7.60;;
13805;SDS011;6974;53.606;9.872;2023-03-01T04:47:59;10.63;;;8.33;;
13805;SDS011;6974;53.606;9.872;2023-03-01T04:50:26;11.93;;;8.27;;
13805;SDS011;6974;53.606;9.872;2023-03-01T04:52:53;13.87;;;8.03;;
13805;SDS011;6974;53.606;9.872;2023-03-01T04:55:23;11.33;;;7.93;;
13805;SDS011;6974;53.606;9.872;2023-03-01T04:57:51;10.93;;;7.80;;
13805;SDS011;6974;53.606;9.872;2023-03-01T05:00:19;10.90;;;7.67;;
13805;SDS011;6974;53.606;9.872;2023-03-01T05:02:48;9.13;;;7.30;;
13805;SDS011;6974;53.606;9.872;2023-03-01T05:05:18;10.57;;;7.43;;
13805;SDS011;6974;53.606;9.872;2023-03-01T05:07:50;11.27;;;7.43;;
13805;SDS011;6974;53.606;9.872;2023-03-01T05:10:21;9.13;;;7.27;;
13805;SDS011;6974;53.606;9.872;2023-03-01T05:12:48;8.83;;;7.53;;
13805;SDS011;6974;53.606;9.872;2023-03-01T05:15:17;8.73;;;7.33;;
13805;SDS011;6974;53.606;9.872;2023-03-01T05:17:45;8.80;;;7.13;;
13805;SDS011;6974;53.606;9.872;2023-03-01T05:20:12;9.30;;;7.43;;
13805;SDS011;6974;53.606;9.872;2023-03-01T05:22:39;8.77;;;6.63;;
13805;SDS011;6974;53.606;9.872;2023-03-01T05:25:06;10.40;;;7.73;;
13805;SDS011;6974;53.606;9.872;2023-03-01T05:27:33;11.23;;;8.20;;
13805;SDS011;6974;53.606;9.872;2023-03-01T05:30:01;10.33;;;8.67;;
13805;SDS011;6974;53.606;9.872;2023-03-01T05:32:38;11.23;;;8.47;;
13805;SDS011;6974;53.606;9.872;2023-03-01T05:35:08;11.20;;;8.30;;
13805;SDS011;6974;53.606;9.872;2023-03-01T05:37:38;9.43;;;8.17;;
13805;SDS011;6974;53.606;9.872;2023-03-01T05:40:05;12.77;;;8.93;;
13805;SDS011;6974;53.606;9.872;2023-03-01T05:42:40;13.80;;;10.90;;
13805;SDS011;6974;53.606;9.872;2023-03-01T05:45:11;12.83;;;10.30;;
13805;SDS011;6974;53.606;9.872;2023-03-01T05:47:39;11.67;;;10.47;;
13805;SDS011;6974;53.606;9.872;2023-03-01T05:50:11;12.33;;;9.67;;
13805;SDS011;6974;53.606;9.872;2023-03-01T05:52:39;12.17;;;9.43;;
13805;SDS011;6974;53.606;9.872;2023-03-01T05:55:06;13.10;;;10.37;;
13805;SDS011;6974;53.606;9.872;2023-03-01T05:57:33;14.73;;;9.83;;
13805;SDS011;6974;53.606;9.872;2023-03-01T06:00:00;12.43;;;10.10;;
13805;SDS011;6974;53.606;9.872;2023-03-01T06:02:28;11.57;;;9.77;;
13805;SDS011;6974;53.606;9.872;2023-03-01T06:04:55;11.90;;;9.40;;
13805;SDS011;6974;53.606;9.872;2023-03-01T06:07:23;11.60;;;8.83;;
13805;SDS011;6974;53.606;9.872;2023-03-01T06:09:50;12.30;;;7.57;;
13805;SDS011;6974;53.606;9.872;2023-03-01T06:12:17;9.07;;;7.33;;
13805;SDS011;6974;53.606;9.872;2023-03-01T06:14:45;9.73;;;7.93;;
13805;SDS011;6974;53.606;9.872;2023-03-01T06:17:13;12.23;;;9.50;;
13805;SDS011;6974;53.606;9.872;2023-03-01T06:19:40;11.53;;;8.20;;
13805;SDS011;6974;53.606;9.872;2023-03-01T06:22:07;10.50;;;7.30;;
13805;SDS011;6974;53.606;9.872;2023-03-01T06:24:35;12.60;;;7.90;;
13805;SDS011;6974;53.606;9.872;2023-03-01T06:27:02;11.37;;;7.23;;
13805;SDS011;6974;53.606;9.872;2023-03-01T06:29:29;12.03;;;7.23;;
13805;SDS011;6974;53.606;9.872;2023-03-01T06:31:56;10.67;;;7.33;;
13805;SDS011;6974;53.606;9.872;2023-03-01T06:34:23;10.17;;;6.77;;
13805;SDS011;6974;53.606;9.872;2023-03-01T06:36:50;8.43;;;5.70;;
13805;SDS011;6974;53.606;9.872;2023-03-01T06:39:17;9.83;;;6.27;;
13805;SDS011;6974;53.606;9.872;2023-03-01T06:41:45;7.20;;;5.97;;
13805;SDS011;6974;53.606;9.872;2023-03-01T06:44:12;10.40;;;6.37;;
13805;SDS011;6974;53.606;9.872;2023-03-01T06:46:39;8.33;;;6.60;;
13805;SDS011;6974;53.606;9.872;2023-03-01T06:49:06;12.00;;;6.73;;
13805;SDS011;6974;53.606;9.872;2023-03-01T06:51:34;10.47;;;7.00;;
13805;SDS011;6974;53.606;9.872;2023-03-01T06:54:02;7.50;;;6.60;;
13805;SDS011;6974;53.606;9.872;2023-03-01T06:56:29;8.93;;;6.63;;
13805;SDS011;6974;53.606;9.872;2023-03-01T06:58:58;10.77;;;6.80;;
13805;SDS011;6974;53.606;9.872;2023-03-01T07:01:25;10.00;;;6.50;;
13805;SDS011;6974;53.606;9.872;2023-03-01T07:03:52;9.43;;;6.40;;
13805;SDS011;6974;53.606;9.872;2023-03-01T07:06:19;8.73;;;6.67;;
13805;SDS011;6974;53.606;9.872;2023-03-01T07:08:46;9.83;;;6.77;;
13805;SDS011;6974;53.606;9.872;2023-03-01T07:11:13;10.10;;;7.10;;
13805;SDS011;6974;53.606;9.872;2023-03-01T07:13:39;9.27;;;6.53;;
13805;SDS011;6974;53.606;9.872;2023-03-01T07:16:08;11.57;;;5.87;;
13805;SDS011;6974;53.606;9.872;2023-03-01T07:18:35;9.07;;;6.00;;
13805;SDS011;6974;53.606;9.872;2023-03-01T07:21:05;6.67;;;5.97;;
13805;SDS011;6974;53.606;9.872;2023-03-01T07:23:33;9.77;;;6.30;;
13805;SDS011;6974;53.606;9.872;2023-03-01T07:25:59;7.07;;;5.87;;
13805;SDS011;6974;53.606;9.872;2023-03-01T07:28:26;8.33;;;5.90;;
13805;SDS011;6974;53.606;9.872;2023-03-01T07:30:53;6.33;;;5.60;;
13805;SDS011;6974;53.606;9.872;2023-03-01T07:33:22;6.60;;;5.93;;
13805;SDS011;6974;53.606;9.872;2023-03-01T07:35:55;7.37;;;6.00;;
13805;SDS011;6974;53.606;9.872;2023-03-01T07:38:23;11.90;;;6.47;;
13805;SDS011;6974;53.606;9.872;2023-03-01T07:40:50;11.43;;;7.23;;
13805;SDS011;6974;53.606;9.872;2023-03-01T07:43:17;16.57;;;7.97;;
13805;SDS011;6974;53.606;9.872;2023-03-01T07:45:44;13.43;;;8.23;;
13805;SDS011;6974;53.606;9.872;2023-03-01T07:48:11;10.67;;;7.30;;
13805;SDS011;6974;53.606;9.872;2023-03-01T07:50:39;8.10;;;6.37;;
13805;SDS011;6974;53.606;9.872;2023-03-01T07:53:06;8.17;;;6.97;;
13805;SDS011;6974;53.606;9.872;2023-03-01T07:55:32;8.73;;;7.67;;
13805;SDS011;6974;53.606;9.872;2023-03-01T07:57:59;9.67;;;7.87;;
13805;SDS011;6974;53.606;9.872;2023-03-01T08:00:26;9.90;;;8.23;;
13805;SDS011;6974;53.606;9.872;2023-03-01T08:02:53;12.73;;;10.60;;
13805;SDS011;6974;53.606;9.872;2023-03-01T08:05:20;15.93;;;10.37;;
13805;SDS011;6974;53.606;9.872;2023-03-01T08:07:48;13.70;;;10.53;;
13805;SDS011;6974;53.606;9.872;2023-03-01T08:10:15;12.27;;;10.80;;
13805;SDS011;6974;53.606;9.872;2023-03-01T08:12:43;14.10;;;10.57;;
13805;SDS011;6974;53.606;9.872;2023-03-01T08:15:10;11.47;;;10.13;;
13805;SDS011;6974;53.606;9.872;2023-03-01T08:17:37;13.17;;;11.77;;
13805;SDS011;6974;53.606;9.872;2023-03-01T08:20:04;13.37;;;11.33;;
13805;SDS011;6974;53.606;9.872;2023-03-01T08:22:32;13.43;;;11.73;;
13805;SDS011;6974;53.606;9.872;2023-03-01T08:25:00;14.20;;;11.57;;
13805;SDS011;6974;53.606;9.872;2023-03-01T08:27:27;14.57;;;12.07;;
13805;SDS011;6974;53.606;9.872;2023-03-01T08:29:54;12.97;;;11.43;;
13805;SDS011;6974;53.606;9.872;2023-03-01T08:32:21;15.23;;;12.43;;
13805;SDS011;6974;53.606;9.872;2023-03-01T08:34:48;13.33;;;11.90;;
13805;SDS011;6974;53.606;9.872;2023-03-01T08:37:15;16.23;;;11.97;;
13805;SDS011;6974;53.606;9.872;2023-03-01T08:39:41;13.60;;;11.23;;
13805;SDS011;6974;53.606;9.872;2023-03-01T08:42:10;13.10;;;11.70;;
13805;SDS011;6974;53.606;9.872;2023-03-01T08:44:36;14.07;;;11.47;;
13805;SDS011;6974;53.606;9.872;2023-03-01T08:47:03;13.60;;;11.50;;
13805;SDS011;6974;53.606;9.872;2023-03-01T08:49:30;13.77;;;11.37;;
13805;SDS011;6974;53.606;9.872;2023-03-01T08:51:58;13.00;;;10.60;;
13805;SDS011;6974;53.606;9.872;2023-03-01T08:54:25;12.90;;;11.50;;
13805;SDS011;6974;53.606;9.872;2023-03-01T08:56:52;13.87;;;11.20;;
13805;SDS011;6974;53.606;9.872;2023-03-01T08:59:20;13.43;;;11.43;;
13805;SDS011;6974;53.606;9.872;2023-03-01T09:01:47;14.03;;;11.53;;
13805;SDS011;6974;53.606;9.872;2023-03-01T09:04:14;16.17;;;12.00;;
13805;SDS011;6974;53.606;9.872;2023-03-01T09:06:41;16.00;;;12.13;;
13805;SDS011;6974;53.606;9.872;2023-03-01T09:09:11;15.60;;;12.20;;
13805;SDS011;6974;53.606;9.872;2023-03-01T09:11:40;16.23;;;13.00;;
13805;SDS011;6974;53.606;9.872;2023-03-01T09:14:07;15.47;;;12.57;;
13805;SDS011;6974;53.606;9.872;2023-03-01T09:16:35;16.83;;;13.30;;
13805;SDS011;6974;53.606;9.872;2023-03-01T09:19:03;18.20;;;13.10;;
13805;SDS011;6974;53.606;9.872;2023-03-01T09:21:30;16.23;;;12.73;;
13805;SDS011;6974;53.606;9.872;2023-03-01T09:23:57;16.40;;;13.30;;
13805;SDS011;6974;53.606;9.872;2023-03-01T09:26:24;16.43;;;12.90;;
13805;SDS011;6974;53.606;9.872;2023-03-01T09:28:52;16.67;;;13.37;;
13805;SDS011;6974;53.606;9.872;2023-03-01T09:31:20;14.30;;;12.43;;
13805;SDS011;6974;53.606;9.872;2023-03-01T09:33:51;19.17;;;13.57;;
13805;SDS011;6974;53.606;9.872;2023-03-01T09:36:19;16.63;;;13.43;;
13805;SDS011;6974;53.606;9.872;2023-03-01T09:38:48;16.07;;;13.07;;
13805;SDS011;6974;53.606;9.872;2023-03-01T09:41:26;15.57;;;12.93;;
13805;SDS011;6974;53.606;9.872;2023-03-01T09:44:05;17.00;;;14.00;;
13805;SDS011;6974;53.606;9.872;2023-03-01T09:46:41;19.27;;;14.57;;
13805;SDS011;6974;53.606;9.872;2023-03-01T09:49:12;18.30;;;13.60;;
13805;SDS011;6974;53.606;9.872;2023-03-01T09:51:42;19.13;;;14.50;;
13805;SDS011;6974;53.606;9.872;2023-03-01T09:54:14;17.40;;;13.47;;
13805;SDS011;6974;53.606;9.872;2023-03-01T09:56:41;16.97;;;13.37;;
13805;SDS011;6974;53.606;9.872;2023-03-01T09:59:19;16.63;;;13.53;;
13805;SDS011;6974;53.606;9.872;2023-03-01T10:01:53;18.63;;;14.40;;
13805;SDS011;6974;53.606;9.872;2023-03-01T10:04:32;19.37;;;15.07;;
13805;SDS011;6974;53.606;9.872;2023-03-01T10:07:15;19.03;;;14.13;;
13805;SDS011;6974;53.606;9.872;2023-03-01T10:09:48;21.20;;;15.07;;
13805;SDS011;6974;53.606;9.872;2023-03-01T10:12:16;20.30;;;15.60;;
13805;SDS011;6974;53.606;9.872;2023-03-01T10:14:48;21.83;;;15.27;;
13805;SDS011;6974;53.606;9.872;2023-03-01T10:17:24;20.17;;;15.83;;
13805;SDS011;6974;53.606;9.872;2023-03-01T10:19:55;23.93;;;15.30;;
13805;SDS011;6974;53.606;9.872;2023-03-01T10:22:36;18.27;;;13.80;;
13805;SDS011;6974;53.606;9.872;2023-03-01T10:25:03;19.80;;;14.47;;
13805;SDS011;6974;53.606;9.872;2023-03-01T10:27:34;16.93;;;13.67;;
13805;SDS011;6974;53.606;9.872;2023-03-01T10:30:13;17.87;;;13.83;;
13805;SDS011;6974;53.606;9.872;2023-03-01T10:32:45;20.00;;;13.47;;
13805;SDS011;6974;53.606;9.872;2023-03-01T10:35:18;16.83;;;12.90;;
13805;SDS011;6974;53.606;9.872;2023-03-01T10:37:56;16.63;;;13.70;;
13805;SDS011;6974;53.606;9.872;2023-03-01T10:40:23;13.80;;;11.33;;
13805;SDS011;6974;53.606;9.872;2023-03-01T10:42:50;13.67;;;11.63;;
13805;SDS011;6974;53.606;9.872;2023-03-01T10:45:26;13.70;;;11.60;;
13805;SDS011;6974;53.606;9.872;2023-03-01T10:48:02;13.90;;;11.13;;
13805;SDS011;6974;53.606;9.872;2023-03-01T10:50:32;13.90;;;11.47;;
13805;SDS011;6974;53.606;9.872;2023-03-01T10:53:00;13.67;;;10.60;;
13805;SDS011;6974;53.606;9.872;2023-03-01T10:55:30;14.47;;;10.93;;
13805;SDS011;6974;53.606;9.872;2023-03-01T10:58:08;13.53;;;10.20;;
13805;SDS011;6974;53.606;9.872;2023-03-01T11:00:48;13.47;;;10.07;;
13805;SDS011;6974;53.606;9.872;2023-03-01T11:03:18;12.60;;;10.30;;
13805;SDS011;6974;53.606;9.872;2023-03-01T11:05:53;13.73;;;9.97;;
13805;SDS011;6974;53.606;9.872;2023-03-01T11:08:29;13.27;;;10.23;;
13805;SDS011;6974;53.606;9.872;2023-03-01T11:11:03;10.93;;;9.40;;
13805;SDS011;6974;53.606;9.872;2023-03-01T11:13:31;12.03;;;9.70;;
13805;SDS011;6974;53.606;9.872;2023-03-01T11:15:59;12.50;;;9.83;;
13805;SDS011;6974;53.606;9.872;2023-03-01T11:18:27;11.67;;;9.37;;
13805;SDS011;6974;53.606;9.872;2023-03-01T11:20:58;12.70;;;9.87;;
13805;SDS011;6974;53.606;9.872;2023-03-01T11:23:28;13.27;;;9.80;;
13805;SDS011;6974;53.606;9.872;2023-03-01T11:25:57;12.50;;;9.80;;
13805;SDS011;6974;53.606;9.872;2023-03-01T11:28:28;12.00;;;9.90;;
13805;SDS011;6974;53.606;9.872;2023-03-01T11:30:56;14.30;;;9.87;;
13805;SDS011;6974;53.606;9.872;2023-03-01T11:33:33;10.33;;;8.87;;
13805;SDS011;6974;53.606;9.872;2023-03-01T11:36:08;11.83;;;9.37;;
13805;SDS011;6974;53.606;9.872;2023-03-01T11:38:42;10.90;;;8.80;;
13805;SDS011;6974;53.606;9.872;2023-03-01T11:41:12;12.30;;;9.67;;
13805;SDS011;6974;53.606;9.872;2023-03-01T11:43:44;11.30;;;8.70;;
13805;SDS011;6974;53.606;9.872;2023-03-01T11:46:28;11.33;;;9.30;;
13805;SDS011;6974;53.606;9.872;2023-03-01T11:52:15;11.70;;;8.90;;
13805;SDS011;6974;53.606;9.872;2023-03-01T11:54:51;10.97;;;8.23;;
13805;SDS011;6974;53.606;9.872;2023-03-01T11:57:36;10.40;;;8.17;;
13805;SDS011;6974;53.606;9.872;2023-03-01T12:00:17;10.57;;;8.03;;
13805;SDS011;6974;53.606;9.872;2023-03-01T12:06:08;10.20;;;7.80;;
13805;SDS011;6974;53.606;9.872;2023-03-01T12:08:51;10.83;;;8.03;;
13805;SDS011;6974;53.606;9.872;2023-03-01T12:11:29;10.57;;;8.40;;
13805;SDS011;6974;53.606;9.872;2023-03-01T12:14:10;13.17;;;9.33;;
13805;SDS011;6974;53.606;9.872;2023-03-01T12:16:55;10.73;;;8.83;;
13805;SDS011;6974;53.606;9.872;2023-03-01T12:19:33;11.60;;;9.30;;
13805;SDS011;6974;53.606;9.872;2023-03-01T12:22:17;10.30;;;9.20;;
13805;SDS011;6974;53.606;9.872;2023-03-01T12:27:47;11.70;;;10.07;;
13805;SDS011;6974;53.606;9.872;2023-03-01T12:30:31;7.40;;;6.67;;
13805;SDS011;6974;53.606;9.872;2023-03-01T12:33:14;10.70;;;9.57;;
13805;SDS011;6974;53.606;9.872;2023-03-01T12:35:54;10.70;;;8.50;;
13805;SDS011;6974;53.606;9.872;2023-03-01T12:38:40;12.97;;;9.87;;
13805;SDS011;6974;53.606;9.872;2023-03-01T12:41:15;11.90;;;9.53;;
13805;SDS011;6974;53.606;9.872;2023-03-01T12:44:09;12.70;;;9.07;;
13805;SDS011;6974;53.606;9.872;2023-03-01T12:46:45;9.27;;;8.33;;
13805;SDS011;6974;53.606;9.872;2023-03-01T12:49:18;10.27;;;8.73;;
13805;SDS011;6974;53.606;9.872;2023-03-01T12:51:51;11.57;;;8.67;;
13805;SDS011;6974;53.606;9.872;2023-03-01T12:54:23;9.07;;;7.97;;
13805;SDS011;6974;53.606;9.872;2023-03-01T12:56:54;10.07;;;8.70;;
13805;SDS011;6974;53.606;9.872;2023-03-01T12:59:24;9.13;;;7.73;;
13805;SDS011;6974;53.606;9.872;2023-03-01T13:02:02;9.47;;;8.20;;
13805;SDS011;6974;53.606;9.872;2023-03-01T13:04:38;10.40;;;8.57;;
13805;SDS011;6974;53.606;9.872;2023-03-01T13:07:21;9.40;;;8.30;;
13805;SDS011;6974;53.606;9.872;2023-03-01T13:09:55;10.13;;;7.93;;
13805;SDS011;6974;53.606;9.872;2023-03-01T13:12:43;9.13;;;8.00;;
13805;SDS011;6974;53.606;9.872;2023-03-01T13:17:59;9.47;;;8.37;;
13805;SDS011;6974;53.606;9.872;2023-03-01T13:20:30;11.13;;;8.23;;
13805;SDS011;6974;53.606;9.872;2023-03-01T13:23:04;9.20;;;8.20;;
13805;SDS011;6974;53.606;9.872;2023-03-01T13:25:34;9.70;;;8.33;;
13805;SDS011;6974;53.606;9.872;2023-03-01T13:37:27;10.00;;;8.30;;
13805;SDS011;6974;53.606;9.872;2023-03-01T13:39:57;10.60;;;8.33;;
13805;SDS011;6974;53.606;9.872;2023-03-01T13:42:31;10.37;;;8.00;;
13805;SDS011;6974;53.606;9.872;2023-03-01T13:45:04;9.10;;;8.00;;
13805;SDS011;6974;53.606;9.872;2023-03-01T13:47:41;9.07;;;7.53;;
13805;SDS011;6974;53.606;9.872;2023-03-01T13:50:16;9.50;;;7.20;;
13805;SDS011;6974;53.606;9.872;2023-03-01T13:52:47;9.53;;;7.13;;
13805;SDS011;6974;53.606;9.872;2023-03-01T13:55:17;8.00;;;7.20;;
13805;SDS011;6974;53.606;9.872;2023-03-01T13:57:47;8.67;;;7.17;;
13805;SDS011;6974;53.606;9.872;2023-03-01T14:00:27;9.30;;;8.13;;
13805;SDS011;6974;53.606;9.872;2023-03-01T14:03:00;9.10;;;7.70;;
13805;SDS011;6974;53.606;9.872;2023-03-01T14:05:32;8.27;;;6.97;;
13805;SDS011;6974;53.606;9.872;2023-03-01T14:08:00;8.73;;;6.90;;
13805;SDS011;6974;53.606;9.872;2023-03-01T14:10:29;7.83;;;7.00;;
13805;SDS011;6974;53.606;9.872;2023-03-01T14:13:08;8.37;;;7.27;;
13805;SDS011;6974;53.606;9.872;2023-03-01T14:15:54;7.53;;;6.77;;
13805;SDS011;6974;53.606;9.872;2023-03-01T14:18:39;8.10;;;6.20;;
13805;SDS011;6974;53.606;9.872;2023-03-01T14:21:13;8.63;;;6.37;;
13805;SDS011;6974;53.606;9.872;2023-03-01T14:23:41;7.53;;;5.87;;
13805;SDS011;6974;53.606;9.872;2023-03-01T14:26:08;8.23;;;6.60;;
13805;SDS011;6974;53.606;9.872;2023-03-01T14:28:37;9.37;;;6.67;;
13805;SDS011;6974;53.606;9.872;2023-03-01T14:34:00;8.33;;;7.17;;
13805;SDS011;6974;53.606;9.872;2023-03-01T14:36:27;8.37;;;6.83;;
13805;SDS011;6974;53.606;9.872;2023-03-01T14:38:55;9.50;;;7.40;;
13805;SDS011;6974;53.606;9.872;2023-03-01T14:41:29;9.77;;;7.37;;
13805;SDS011;6974;53.606;9.872;2023-03-01T14:44:00;9.80;;;8.00;;
13805;SDS011;6974;53.606;9.872;2023-03-01T14:46:29;10.40;;;8.70;;
13805;SDS011;6974;53.606;9.872;2023-03-01T14:49:01;9.70;;;7.77;;
13805;SDS011;6974;53.606;9.872;2023-03-01T14:51:30;9.63;;;7.60;;
13805;SDS011;6974;53.606;9.872;2023-03-01T14:54:01;9.63;;;8.07;;
13805;SDS011;6974;53.606;9.872;2023-03-01T14:56:28;10.13;;;7.50;;
13805;SDS011;6974;53.606;9.872;2023-03-01T14:59:09;8.97;;;6.90;;
13805;SDS011;6974;53.606;9.872;2023-03-01T15:01:38;10.27;;;7.27;;
13805;SDS011;6974;53.606;9.872;2023-03-01T15:04:06;8.90;;;7.60;;
13805;SDS011;6974;53.606;9.872;2023-03-01T15:06:37;11.57;;;8.77;;
13805;SDS011;6974;53.606;9.872;2023-03-01T15:09:04;9.97;;;8.20;;
13805;SDS011;6974;53.606;9.872;2023-03-01T15:11:33;9.37;;;8.37;;
13805;SDS011;6974;53.606;9.872;2023-03-01T15:14:02;9.73;;;8.63;;
13805;SDS011;6974;53.606;9.872;2023-03-01T15:16:54;14.70;;;9.37;;
13805;SDS011;6974;53.606;9.872;2023-03-01T15:19:21;11.80;;;9.07;;
13805;SDS011;6974;53.606;9.872;2023-03-01T15:21:53;11.60;;;9.27;;
13805;SDS011;6974;53.606;9.872;2023-03-01T15:24:23;12.70;;;9.40;;